createdAt,value
2018-05-25T00:00:56.916Z,31.43
2018-05-25T00:03:23.917Z,38.73
2018-05-25T00:05:50.709Z,33.07
2018-05-25T00:08:19.081Z,36.70
2018-05-25T00:10:45.861Z,35.27
2018-05-25T00:13:13.069Z,38.20
2018-05-25T00:15:39.438Z,32.30
2018-05-25T00:18:05.861Z,32.80
2018-05-25T00:20:32.568Z,29.37
2018-05-25T00:23:04.582Z,37.57
2018-05-25T00:25:35.896Z,34.93
2018-05-25T00:28:06.782Z,40.40
2018-05-25T00:30:33.653Z,38.40
2018-05-25T00:35:50.372Z,33.33
2018-05-25T00:38:20.381Z,35.53
2018-05-25T00:40:47.064Z,36.83
2018-05-25T00:43:20.352Z,38.23
2018-05-25T00:45:48.551Z,39.23
2018-05-25T00:48:16.373Z,34.00
2018-05-25T00:50:42.988Z,40.03
2018-05-25T00:53:09.409Z,38.67
2018-05-25T00:55:38.587Z,36.63
2018-05-25T00:58:05.187Z,38.57
2018-05-25T01:00:31.965Z,34.90
2018-05-25T01:02:59.067Z,31.77
2018-05-25T01:05:25.473Z,32.90
2018-05-25T01:07:51.984Z,38.10
2018-05-25T01:10:20.484Z,36.80
2018-05-25T01:12:50.232Z,37.83
2018-05-25T01:15:22.991Z,34.40
2018-05-25T01:17:49.496Z,38.87
2018-05-25T01:20:17.809Z,38.80
2018-05-25T01:22:44.219Z,43.43
2018-05-25T01:25:11.939Z,42.73
2018-05-25T01:27:38.664Z,40.33
2018-05-25T01:30:05.484Z,43.40
2018-05-25T01:32:33.177Z,41.00
2018-05-25T01:34:59.586Z,44.60
2018-05-25T01:37:26.946Z,47.17
2018-05-25T01:39:55.013Z,42.47
2018-05-25T01:42:21.397Z,40.00
2018-05-25T01:44:48.849Z,40.47
2018-05-25T01:47:15.927Z,37.80
2018-05-25T01:49:42.278Z,41.90
2018-05-25T01:52:08.647Z,37.20
2018-05-25T01:54:35.357Z,43.60
2018-05-25T01:57:01.933Z,42.40
2018-05-25T01:59:28.517Z,42.87
2018-05-25T02:01:54.909Z,38.17
2018-05-25T02:04:21.334Z,39.37
2018-05-25T02:06:49.729Z,41.70
2018-05-25T02:09:16.188Z,38.67
2018-05-25T02:11:42.699Z,40.47
2018-05-25T02:14:09.493Z,47.27
2018-05-25T02:16:36.140Z,42.43
2018-05-25T02:19:02.559Z,39.60
2018-05-25T02:21:29.365Z,42.57
2018-05-25T02:23:56.848Z,39.30
2018-05-25T02:26:23.315Z,41.37
2018-05-25T02:28:50.432Z,46.70
2018-05-25T02:31:16.783Z,53.10
2018-05-25T02:33:43.166Z,49.83
2018-05-25T02:36:09.524Z,50.33
2018-05-25T02:38:36.240Z,50.27
2018-05-25T02:41:02.685Z,52.00
2018-05-25T02:43:28.991Z,49.23
2018-05-25T02:45:56.068Z,53.10
2018-05-25T02:48:22.370Z,59.33
2018-05-25T02:50:48.752Z,52.47
2018-05-25T02:53:15.113Z,65.20
2018-05-25T02:55:41.798Z,47.80
2018-05-25T02:58:08.115Z,50.70
2018-05-25T03:00:34.460Z,53.40
2018-05-25T03:03:00.744Z,46.63
2018-05-25T03:05:27.108Z,48.80
2018-05-25T03:07:53.421Z,51.87
2018-05-25T03:10:19.760Z,51.27
2018-05-25T03:12:46.077Z,57.20
2018-05-25T03:15:12.587Z,53.10
2018-05-25T03:17:39.599Z,53.50
2018-05-25T03:20:06.328Z,50.00
2018-05-25T03:22:33.767Z,54.17
2018-05-25T03:25:01.437Z,50.40
2018-05-25T03:27:28.155Z,50.30
2018-05-25T03:29:54.533Z,50.37
2018-05-25T03:32:21.759Z,47.57
2018-05-25T03:34:48.641Z,54.37
2018-05-25T03:37:16.333Z,59.13
2018-05-25T03:39:42.981Z,62.03
2018-05-25T03:42:09.611Z,66.03
2018-05-25T03:44:36.155Z,56.30
2018-05-25T03:47:02.544Z,48.23
2018-05-25T03:49:28.853Z,68.37
2018-05-25T03:51:55.861Z,52.67
2018-05-25T03:54:22.236Z,48.97
2018-05-25T03:56:48.588Z,50.97
2018-05-25T03:59:27.076Z,53.07
2018-05-25T04:01:57.214Z,50.87
2018-05-25T04:04:23.547Z,55.93
2018-05-25T04:06:49.840Z,51.70
2018-05-25T04:09:16.152Z,50.93
2018-05-25T04:11:43.347Z,52.00
2018-05-25T04:14:09.718Z,53.90
2018-05-25T04:16:36.150Z,46.20
2018-05-25T04:19:02.440Z,51.17
2018-05-25T04:21:29.768Z,52.47
2018-05-25T04:23:57.057Z,61.63
2018-05-25T04:26:24.098Z,48.47
2018-05-25T04:28:50.436Z,50.30
2018-05-25T04:31:16.832Z,55.97
2018-05-25T04:33:43.130Z,49.77
2018-05-25T04:36:10.176Z,51.67
2018-05-25T04:38:37.218Z,48.77
2018-05-25T04:41:03.504Z,45.90
2018-05-25T04:43:30.608Z,55.50
2018-05-25T04:45:56.921Z,58.60
2018-05-25T04:48:23.331Z,55.40
2018-05-25T04:50:50.534Z,50.07
2018-05-25T04:53:16.902Z,56.40
2018-05-25T04:55:43.263Z,56.67
2018-05-25T04:58:09.587Z,52.03
2018-05-25T05:00:36.011Z,54.50
2018-05-25T05:03:02.359Z,49.20
2018-05-25T05:05:28.720Z,53.57
2018-05-25T05:07:55.026Z,50.70
2018-05-25T05:10:21.419Z,47.30
2018-05-25T05:12:47.716Z,52.70
2018-05-25T05:15:14.000Z,51.27
2018-05-25T05:17:40.298Z,56.27
2018-05-25T05:20:06.664Z,56.27
2018-05-25T05:22:33.288Z,58.80
2018-05-25T05:25:00.341Z,63.17
2018-05-25T05:27:27.188Z,56.57
2018-05-25T05:29:53.985Z,59.13
2018-05-25T05:32:20.597Z,58.30
2018-05-25T05:34:46.983Z,64.37
2018-05-25T05:37:13.786Z,59.63
2018-05-25T05:39:40.459Z,59.90
2018-05-25T05:42:07.197Z,57.10
2018-05-25T05:44:33.900Z,64.30
2018-05-25T05:47:00.701Z,63.20
2018-05-25T05:49:27.580Z,62.07
2018-05-25T05:51:54.179Z,54.90
2018-05-25T05:54:21.625Z,60.20
2018-05-25T05:56:48.072Z,64.70
2018-05-25T05:59:15.572Z,60.87
2018-05-25T06:01:41.962Z,68.23
2018-05-25T06:04:08.292Z,64.30
2018-05-25T06:06:34.684Z,68.53
2018-05-25T06:09:01.263Z,65.07
2018-05-25T06:11:27.750Z,68.60
2018-05-25T06:13:54.376Z,60.30
2018-05-25T06:16:20.941Z,59.73
2018-05-25T06:18:48.192Z,63.83
2018-05-25T06:21:15.237Z,59.47
2018-05-25T06:23:41.857Z,56.90
2018-05-25T06:26:10.920Z,59.00
2018-05-25T06:28:37.256Z,67.67
2018-05-25T06:31:03.607Z,63.20
2018-05-25T06:33:31.040Z,64.00
2018-05-25T06:35:59.935Z,75.03
2018-05-25T06:43:32.941Z,72.40
2018-05-25T06:46:00.186Z,77.63
2018-05-25T06:48:30.031Z,71.37
2018-05-25T06:50:56.639Z,72.90
2018-05-25T06:53:23.132Z,68.77
2018-05-25T06:55:50.841Z,81.53
2018-05-25T06:58:17.371Z,78.90
2018-05-25T07:00:43.643Z,71.87
2018-05-25T07:03:14.619Z,76.10
2018-05-25T07:05:44.792Z,68.23
2018-05-25T07:08:11.216Z,65.70
2018-05-25T07:10:37.935Z,67.47
2018-05-25T07:13:04.241Z,67.83
2018-05-25T07:15:30.592Z,70.00
2018-05-25T07:17:57.831Z,70.20
2018-05-25T07:20:24.368Z,69.77
2018-05-25T07:22:50.657Z,68.20
2018-05-25T07:25:17.478Z,64.20
2018-05-25T07:27:43.805Z,78.03
2018-05-25T07:30:10.168Z,76.30
2018-05-25T07:32:36.545Z,68.27
2018-05-25T07:35:03.020Z,73.17
2018-05-25T07:37:29.535Z,74.77
2018-05-25T07:39:57.780Z,73.60
2018-05-25T07:42:24.131Z,67.17
2018-05-25T07:44:50.477Z,68.03
2018-05-25T07:47:17.106Z,68.00
2018-05-25T07:49:43.612Z,66.70
2018-05-25T07:52:10.223Z,69.47
2018-05-25T07:54:36.568Z,77.90
2018-05-25T07:57:03.653Z,73.57
2018-05-25T07:59:30.272Z,67.57
2018-05-25T08:01:57.313Z,66.23
2018-05-25T08:04:24.168Z,61.70
2018-05-25T08:06:50.836Z,63.60
2018-05-25T08:09:18.626Z,67.10
2018-05-25T08:11:44.989Z,66.63
2018-05-25T08:14:11.301Z,58.87
2018-05-25T08:16:37.922Z,67.90
2018-05-25T08:19:04.284Z,69.33
2018-05-25T08:21:30.638Z,64.97
2018-05-25T08:23:57.061Z,64.20
2018-05-25T08:26:23.448Z,67.63
2018-05-25T08:28:49.823Z,67.23
2018-05-25T08:31:17.137Z,66.07
2018-05-25T08:33:43.525Z,56.77
2018-05-25T08:36:10.382Z,63.73
2018-05-25T08:38:36.805Z,57.43
2018-05-25T08:41:05.685Z,62.60
2018-05-25T08:43:31.924Z,67.30
2018-05-25T08:45:58.226Z,63.33
2018-05-25T08:48:24.470Z,60.73
2018-05-25T08:50:53.621Z,60.60
2018-05-25T08:53:20.112Z,61.07
2018-05-25T08:55:46.470Z,54.40
2018-05-25T08:58:12.845Z,51.50
2018-05-25T09:00:39.299Z,51.47
2018-05-25T09:03:06.125Z,57.60
2018-05-25T09:05:32.820Z,56.73
2018-05-25T09:08:01.146Z,52.93
2018-05-25T09:10:27.605Z,63.43
2018-05-25T09:12:54.364Z,51.60
2018-05-25T09:15:21.760Z,55.50
2018-05-25T09:17:48.143Z,55.40
2018-05-25T09:20:15.261Z,51.53
2018-05-25T09:22:41.608Z,58.03
2018-05-25T09:25:07.901Z,55.33
2018-05-25T09:27:35.868Z,46.30
2018-05-25T09:30:02.198Z,48.87
2018-05-25T09:32:28.506Z,49.00
2018-05-25T09:34:55.029Z,50.27
2018-05-25T09:37:27.893Z,49.70
2018-05-25T09:39:54.195Z,47.03
2018-05-25T09:42:20.616Z,46.50
2018-05-25T09:44:48.733Z,53.53
2018-05-25T09:47:15.061Z,48.20
2018-05-25T09:49:41.405Z,47.23
2018-05-25T09:52:07.794Z,53.03
2018-05-25T09:54:34.680Z,45.43
2018-05-25T09:57:01.799Z,48.40
2018-05-25T09:59:28.345Z,46.50
2018-05-25T10:01:55.122Z,45.60
2018-05-25T10:04:21.405Z,48.27
2018-05-25T10:06:47.969Z,45.17
2018-05-25T10:09:14.711Z,41.90
2018-05-25T10:11:44.001Z,40.60
2018-05-25T10:14:10.457Z,47.00
2018-05-25T10:16:36.941Z,44.90
2018-05-25T10:19:03.796Z,40.50
2018-05-25T10:21:30.200Z,54.50
2018-05-25T10:23:56.446Z,43.37
2018-05-25T10:26:22.829Z,42.80
2018-05-25T10:28:49.249Z,35.47
2018-05-25T10:31:16.698Z,42.47
2018-05-25T10:33:43.093Z,37.40
2018-05-25T10:36:10.274Z,41.93
2018-05-25T10:38:36.692Z,43.37
2018-05-25T10:41:02.982Z,41.00
2018-05-25T10:43:29.408Z,35.80
2018-05-25T10:45:56.448Z,40.83
2018-05-25T10:48:22.862Z,34.43
2018-05-25T10:50:49.189Z,34.77
2018-05-25T10:53:15.597Z,39.90
2018-05-25T10:55:41.994Z,41.37
2018-05-25T10:58:08.950Z,35.67
2018-05-25T11:00:35.368Z,36.67
2018-05-25T11:03:01.710Z,30.73
2018-05-25T11:05:28.081Z,29.73
2018-05-25T11:07:54.783Z,30.90
2018-05-25T11:10:22.198Z,34.30
2018-05-25T11:12:48.498Z,28.70
2018-05-25T11:15:14.969Z,29.50
2018-05-25T11:17:41.242Z,27.83
2018-05-25T11:20:07.578Z,34.13
2018-05-25T11:22:34.103Z,27.30
2018-05-25T11:25:00.487Z,25.80
2018-05-25T11:27:27.044Z,26.17
2018-05-25T11:29:53.290Z,23.20
2018-05-25T11:32:21.159Z,24.17
2018-05-25T11:34:48.092Z,20.20
2018-05-25T11:37:15.483Z,21.80
2018-05-25T11:39:42.024Z,27.40
2018-05-25T11:42:08.386Z,23.60
2018-05-25T11:44:34.903Z,20.70
2018-05-25T11:47:01.486Z,15.37
2018-05-25T11:49:28.008Z,16.07
2018-05-25T11:51:54.402Z,16.40
2018-05-25T11:54:22.120Z,15.97
2018-05-25T11:56:49.632Z,14.43
2018-05-25T11:59:16.032Z,16.50
2018-05-25T12:01:42.576Z,18.27
2018-05-25T12:04:09.133Z,14.30
2018-05-25T12:06:35.462Z,13.93
2018-05-25T12:09:06.872Z,14.70
2018-05-25T12:11:34.687Z,14.93
2018-05-25T12:14:01.349Z,12.80
2018-05-25T12:16:28.718Z,14.17
2018-05-25T12:18:55.100Z,18.90
2018-05-25T12:21:21.607Z,18.50
2018-05-25T12:23:48.040Z,16.90
2018-05-25T12:26:14.460Z,15.50
2018-05-25T12:28:40.769Z,19.87
2018-05-25T12:31:07.852Z,13.87
2018-05-25T12:33:35.669Z,15.87
2018-05-25T12:36:02.107Z,9.90
2018-05-25T12:38:28.507Z,9.87
2018-05-25T12:40:54.993Z,19.87
2018-05-25T12:43:21.565Z,10.27
2018-05-25T12:45:48.328Z,8.07
2018-05-25T12:48:14.697Z,12.33
2018-05-25T12:50:41.105Z,9.80
2018-05-25T12:53:07.455Z,6.80
2018-05-25T12:55:33.848Z,7.60
2018-05-25T12:58:00.921Z,9.87
2018-05-25T13:00:27.976Z,12.50
2018-05-25T13:02:54.489Z,8.80
2018-05-25T13:05:22.666Z,8.53
2018-05-25T13:07:49.122Z,11.30
2018-05-25T13:10:19.011Z,9.07
2018-05-25T13:12:46.384Z,8.53
2018-05-25T13:15:12.783Z,8.23
2018-05-25T13:17:41.344Z,7.97
2018-05-25T13:20:08.895Z,8.83
2018-05-25T13:22:35.593Z,7.77
2018-05-25T13:25:02.228Z,7.60
2018-05-25T13:27:28.809Z,7.77
2018-05-25T13:29:55.226Z,8.07
2018-05-25T13:32:21.509Z,8.17
2018-05-25T13:34:47.891Z,8.70
2018-05-25T13:37:14.298Z,10.63
2018-05-25T13:39:40.801Z,9.17
2018-05-25T13:42:09.313Z,6.03
2018-05-25T13:44:36.087Z,7.60
2018-05-25T13:47:03.506Z,6.23
2018-05-25T13:49:29.879Z,5.90
2018-05-25T13:51:56.297Z,5.80
2018-05-25T13:54:23.483Z,6.83
2018-05-25T13:56:49.903Z,6.70
2018-05-25T13:59:16.231Z,7.73
2018-05-25T14:01:43.160Z,7.00
2018-05-25T14:04:11.362Z,6.30
2018-05-25T14:06:38.001Z,6.60
2018-05-25T14:09:05.623Z,7.17
2018-05-25T14:11:32.712Z,10.30
2018-05-25T14:14:00.160Z,5.80
2018-05-25T14:16:26.586Z,6.20
2018-05-25T14:18:56.216Z,11.53
2018-05-25T14:21:22.534Z,8.47
2018-05-25T14:23:50.333Z,6.70
2018-05-25T14:26:17.048Z,9.00
2018-05-25T14:28:43.818Z,7.67
2018-05-25T14:31:13.775Z,12.10
2018-05-25T14:33:42.232Z,9.23
2018-05-25T14:36:18.331Z,14.70
2018-05-25T14:38:44.833Z,14.63
2018-05-25T14:41:11.280Z,10.63
2018-05-25T14:43:37.692Z,8.57
2018-05-25T14:46:04.064Z,9.00
2018-05-25T14:48:31.399Z,8.80
2018-05-25T14:50:58.992Z,12.90
2018-05-25T14:53:25.652Z,9.10
2018-05-25T14:55:52.039Z,10.10
2018-05-25T14:58:21.760Z,8.47
2018-05-25T15:00:48.178Z,10.83
2018-05-25T15:03:14.907Z,8.20
2018-05-25T15:05:42.364Z,8.37
2018-05-25T15:08:08.784Z,8.40
2018-05-25T15:10:35.137Z,7.70
2018-05-25T15:13:01.524Z,7.57
2018-05-25T15:15:27.784Z,13.43
2018-05-25T15:17:54.047Z,11.43
2018-05-25T15:20:20.370Z,9.27
2018-05-25T15:22:46.876Z,10.67
2018-05-25T15:25:13.545Z,9.40
2018-05-25T15:27:40.030Z,7.90
2018-05-25T15:30:06.382Z,10.60
2018-05-25T15:32:32.768Z,8.00
2018-05-25T15:34:58.946Z,9.53
2018-05-25T15:37:25.531Z,14.93
2018-05-25T15:39:53.264Z,8.80
2018-05-25T15:42:20.055Z,8.27
2018-05-25T15:44:46.332Z,9.13
2018-05-25T15:47:12.761Z,8.33
2018-05-25T15:49:39.172Z,12.53
2018-05-25T15:52:05.687Z,8.93
2018-05-25T15:54:32.587Z,7.67
2018-05-25T15:56:59.031Z,11.23
2018-05-25T15:59:25.293Z,13.60
2018-05-25T16:01:51.830Z,9.70
2018-05-25T16:04:19.217Z,8.67
2018-05-25T16:06:45.596Z,8.97
2018-05-25T16:09:12.080Z,8.90
2018-05-25T16:14:17.526Z,8.37
2018-05-25T16:16:43.894Z,8.60
2018-05-25T16:19:10.980Z,9.73
2018-05-25T16:21:37.452Z,12.97
2018-05-25T16:24:03.749Z,11.73
2018-05-25T16:26:30.335Z,8.70
2018-05-25T16:28:56.760Z,8.20
2018-05-25T16:31:22.974Z,6.73
2018-05-25T16:33:50.058Z,7.73
2018-05-25T16:36:16.430Z,10.50
2018-05-25T16:38:42.784Z,6.23
2018-05-25T16:41:09.098Z,9.93
2018-05-25T16:43:35.484Z,5.43
2018-05-25T16:46:01.778Z,5.90
2018-05-25T16:48:28.547Z,6.70
2018-05-25T16:50:56.678Z,6.67
2018-05-25T16:53:23.203Z,6.10
2018-05-25T16:55:49.593Z,8.03
2018-05-25T16:58:16.779Z,9.07
2018-05-25T17:00:43.300Z,6.00
2018-05-25T17:03:09.693Z,5.83
2018-05-25T17:05:35.933Z,9.60
2018-05-25T17:08:03.067Z,5.70
2018-05-25T17:10:29.584Z,6.30
2018-05-25T17:13:00.239Z,6.70
2018-05-25T17:15:27.065Z,6.43
2018-05-25T17:17:53.433Z,8.17
2018-05-25T17:20:19.660Z,6.10
2018-05-25T17:22:46.088Z,6.03
2018-05-25T17:25:12.480Z,8.60
2018-05-25T17:27:43.297Z,10.70
2018-05-25T17:30:09.610Z,5.60
2018-05-25T17:32:36.600Z,5.87
2018-05-25T17:35:04.100Z,8.00
2018-05-25T17:37:31.638Z,8.83
2018-05-25T17:39:58.158Z,8.80
2018-05-25T17:42:24.858Z,4.90
2018-05-25T17:44:51.348Z,33.77
2018-05-25T17:47:17.847Z,4.13
2018-05-25T17:49:44.153Z,5.20
2018-05-25T17:52:10.461Z,6.20
2018-05-25T17:54:36.779Z,5.87
2018-05-25T17:57:07.893Z,8.23
2018-05-25T17:59:34.185Z,5.67
2018-05-25T18:02:00.558Z,6.57
2018-05-25T18:04:27.602Z,6.80
2018-05-25T18:06:54.005Z,6.23
2018-05-25T18:09:20.465Z,7.17
2018-05-25T18:11:48.973Z,8.40
2018-05-25T18:14:15.294Z,8.73
2018-05-25T18:16:42.042Z,5.97
2018-05-25T18:19:08.398Z,7.20
2018-05-25T18:21:34.700Z,7.83
2018-05-25T18:24:01.027Z,7.40
2018-05-25T18:26:31.606Z,7.33
2018-05-25T18:28:58.062Z,6.60
2018-05-25T18:31:30.992Z,9.97
2018-05-25T18:33:57.321Z,5.87
2018-05-25T18:36:25.383Z,9.03
2018-05-25T18:38:53.382Z,6.27
2018-05-25T18:41:25.555Z,13.03
2018-05-25T18:44:00.410Z,6.20
2018-05-25T18:46:27.581Z,7.20
2018-05-25T18:48:54.600Z,7.80
2018-05-25T18:51:29.254Z,6.70
2018-05-25T18:54:08.338Z,9.30
2018-05-25T18:56:34.896Z,6.83
2018-05-25T18:59:03.896Z,11.23
2018-05-25T19:01:32.978Z,7.70
2018-05-25T19:03:59.639Z,7.67
2018-05-25T19:06:26.338Z,10.00
2018-05-25T19:08:53.107Z,8.53
2018-05-25T19:11:20.359Z,7.20
2018-05-25T19:13:53.299Z,6.93
2018-05-25T19:16:19.681Z,9.63
2018-05-25T19:18:46.723Z,10.07
2018-05-25T19:21:17.878Z,8.10
2018-05-25T19:23:44.243Z,12.40
2018-05-25T19:26:10.574Z,13.43
2018-05-25T19:28:37.533Z,14.30
2018-05-25T19:31:03.839Z,9.53
2018-05-25T19:33:30.280Z,18.27
2018-05-25T19:35:58.325Z,12.27
2018-05-25T19:38:24.839Z,10.27
2018-05-25T19:43:32.928Z,10.43
2018-05-25T19:45:59.255Z,9.47
2018-05-25T19:48:26.228Z,9.33
2018-05-25T19:50:52.545Z,13.13
2018-05-25T19:53:20.324Z,14.07
2018-05-25T19:55:46.744Z,11.07
2018-05-25T19:58:13.399Z,14.70
2018-05-25T20:00:40.014Z,9.50
2018-05-25T20:03:06.453Z,20.67
2018-05-25T20:05:32.708Z,12.93
2018-05-25T20:07:58.971Z,11.63
2018-05-25T20:10:26.725Z,10.70
2018-05-25T20:12:57.895Z,12.23
2018-05-25T20:15:24.244Z,15.00
2018-05-25T20:17:51.392Z,10.67
2018-05-25T20:20:17.822Z,11.13
2018-05-25T20:22:44.139Z,11.37
2018-05-25T20:25:10.428Z,10.63
2018-05-25T20:27:37.805Z,10.27
2018-05-25T20:30:04.108Z,11.13
2018-05-25T20:32:30.450Z,19.13
2018-05-25T20:34:56.782Z,11.70
2018-05-25T20:37:23.000Z,10.43
2018-05-25T20:39:49.242Z,13.30
2018-05-25T20:42:16.289Z,15.67
2018-05-25T20:44:43.371Z,11.07
2018-05-25T20:47:09.655Z,10.67
2018-05-25T20:49:35.901Z,10.37
2018-05-25T20:52:02.195Z,11.40
2018-05-25T20:54:28.496Z,10.00
2018-05-25T20:56:54.743Z,10.20
2018-05-25T20:59:21.287Z,11.00
2018-05-25T21:01:47.731Z,9.57
2018-05-25T21:04:14.076Z,9.40
2018-05-25T21:06:40.484Z,10.67
2018-05-25T21:09:06.783Z,13.03
2018-05-25T21:11:33.041Z,18.83
2018-05-25T21:13:59.484Z,11.30
2018-05-25T21:16:25.921Z,11.20
2018-05-25T21:18:53.087Z,17.53
2018-05-25T21:21:19.588Z,14.73
2018-05-25T21:23:46.610Z,10.80
2018-05-25T21:26:13.719Z,11.07
2018-05-25T21:28:41.112Z,13.03
2018-05-25T21:31:07.507Z,11.20
2018-05-25T21:33:33.757Z,11.20
2018-05-25T21:36:02.636Z,14.03
2018-05-25T21:38:29.096Z,14.73
2018-05-25T21:40:55.374Z,12.53
2018-05-25T21:43:21.601Z,15.87
2018-05-25T21:45:47.918Z,11.80
2018-05-25T21:48:14.716Z,14.13
2018-05-25T21:50:41.257Z,14.20
2018-05-25T21:53:07.675Z,13.03
2018-05-25T21:55:34.209Z,13.03
2018-05-25T21:58:02.367Z,13.33
2018-05-25T22:00:28.789Z,10.80
2018-05-25T22:02:55.039Z,15.40
2018-05-25T22:05:21.595Z,10.87
2018-05-25T22:07:48.089Z,16.90
2018-05-25T22:10:14.555Z,13.93
2018-05-25T22:12:40.806Z,11.60
2018-05-25T22:15:07.152Z,12.17
2018-05-25T22:17:33.728Z,11.67
2018-05-25T22:20:00.032Z,17.90
2018-05-25T22:22:26.297Z,10.70
2018-05-25T22:24:53.102Z,12.17
2018-05-25T22:27:19.649Z,14.27
2018-05-25T22:29:45.950Z,12.83
2018-05-25T22:32:12.492Z,24.23
2018-05-25T22:34:38.782Z,15.70
2018-05-25T22:37:05.035Z,14.57
2018-05-25T22:39:31.277Z,13.20
2018-05-25T22:41:57.485Z,22.63
2018-05-25T22:44:35.893Z,15.20
2018-05-25T22:47:14.279Z,12.53
2018-05-25T22:49:52.857Z,18.70
2018-05-25T22:52:25.108Z,16.13
2018-05-25T22:54:51.433Z,16.20
2018-05-25T22:57:17.796Z,11.37
2018-05-25T22:59:44.105Z,10.53
2018-05-25T23:02:10.495Z,19.43
2018-05-25T23:04:36.843Z,17.20
2018-05-25T23:07:03.116Z,13.63
2018-05-25T23:09:29.359Z,12.90
2018-05-25T23:11:56.407Z,18.07
2018-05-25T23:14:23.447Z,18.53
2018-05-25T23:16:49.870Z,16.63
2018-05-25T23:19:16.129Z,14.80
2018-05-25T23:21:43.264Z,12.53
2018-05-25T23:24:09.641Z,22.90
2018-05-25T23:26:35.924Z,17.13
2018-05-25T23:29:02.290Z,13.83
2018-05-25T23:31:28.586Z,13.07
2018-05-25T23:33:54.851Z,12.40
2018-05-25T23:36:21.345Z,12.77
2018-05-25T23:38:47.697Z,16.93
2018-05-25T23:41:14.812Z,15.30
2018-05-25T23:43:41.096Z,16.10
2018-05-25T23:46:07.350Z,20.13
2018-05-25T23:48:33.635Z,16.00
2018-05-25T23:50:59.888Z,12.80
2018-05-25T23:53:26.171Z,12.33
2018-05-25T23:55:52.622Z,13.70
2018-05-25T23:58:18.966Z,16.70
